PWSweather.com
Personal Weather Stations
Station Observations
KMILAPEE3
Lapeer Michigan, Lapeer, MI 48446

Lapeer MichiganLapeer, MI 48446

Lat: 43.057, Lon: -83.362

Elevation: 897

Station Type: Oregon Scientific WMR-968

Latest ConditionsUpdated 8:44:35 AM EDT Friday, Oct 31, 2014
Currently Today's Max Today's Min Today's Average
Temperature 41.9°F5.5°C 44.2°F6.8°C 41.9°F5.5°C 42.8°F6.0°C
Dew Point 33.3°F0.7°C 33.3°F0.7°C 30.3°F-0.9°C 31.6°F-0.2°C
Winds Calm Calm 5.1 mph SSW8.2 kmh SSW - 3.4 mph 5.5 kmh
Wind Gusts 4.9 mph7.9 kmh 10.4 mph16.7 kmh - -
Humidity 71% 71% 60% 64%
Pressure 32.01 in1084.0 mb 32.01 in1084.0 mb 32.01 in1084.0 mb -
Hour Temp Dew Point Humidity Winds Wind Gusts Pressure Precip Precip Rate Daily Precip Total
08:44 AM 41.9°F5.5°C 33.3°F0.7°C 71% Calm Calm 4.9 mph7.9 kmh 32.01 in1084.0 mb 0.00 in0.0 mm 0.00 in/hr0.0 mm/hr 0.00 in0.0 mm
08:39 AM 41.9°F5.5°C 33.3°F0.7°C 71% 2.8 mph SW4.5 kmh SW 5.5 mph8.9 kmh 32.01 in1084.0 mb 0.00 in0.0 mm 0.00 in/hr0.0 mm/hr 0.00 in0.0 mm
08:34 AM 41.9°F5.5°C 33.3°F0.7°C 71% 2.8 mph SW4.5 kmh SW 5.5 mph8.9 kmh 32.01 in1084.0 mb 0.00 in0.0 mm 0.00 in/hr0.0 mm/hr 0.00 in0.0 mm
08:29 AM 41.9°F5.5°C 33.3°F0.7°C 71% Calm Calm 4.3 mph6.9 kmh 32.01 in1084.0 mb 0.00 in0.0 mm 0.00 in/hr0.0 mm/hr 0.00 in0.0 mm
08:24 AM 41.9°F5.5°C 33.3°F0.7°C 71% Calm Calm 4.9 mph7.9 kmh 32.01 in1084.0 mb 0.00 in0.0 mm 0.00 in/hr0.0 mm/hr 0.00 in0.0 mm
08:19 AM 41.9°F5.5°C 32.9°F0.5°C 70% Calm Calm 4.9 mph7.9 kmh 32.01 in1084.0 mb 0.00 in0.0 mm 0.00 in/hr0.0 mm/hr 0.00 in0.0 mm
08:14 AM 41.9°F5.5°C 32.8°F0.4°C 70% 2.8 mph SW4.5 kmh SW 5.5 mph8.9 kmh 32.01 in1084.0 mb 0.00 in0.0 mm 0.00 in/hr0.0 mm/hr 0.00 in0.0 mm
08:09 AM 41.9°F5.5°C 32.8°F0.4°C 70% 3.4 mph SW5.5 kmh SW 5.5 mph8.9 kmh 32.01 in1084.0 mb 0.00 in0.0 mm 0.00 in/hr0.0 mm/hr 0.00 in0.0 mm
08:04 AM 41.9°F5.5°C 32.8°F0.4°C 70% 3.6 mph SW5.8 kmh SW 5.5 mph8.9 kmh 32.01 in1084.0 mb 0.00 in0.0 mm 0.00 in/hr0.0 mm/hr 0.00 in0.0 mm
07:59 AM 41.9°F5.5°C 32.8°F0.4°C 70% Calm Calm 5.5 mph8.9 kmh 32.01 in1084.0 mb 0.00 in0.0 mm 0.00 in/hr0.0 mm/hr 0.00 in0.0 mm
07:54 AM 41.9°F5.5°C 32.4°F0.2°C 69% 3.9 mph SW6.3 kmh SW 5.5 mph8.9 kmh 32.01 in1084.0 mb 0.00 in0.0 mm 0.00 in/hr0.0 mm/hr 0.00 in0.0 mm
07:49 AM 41.9°F5.5°C 32.4°F0.2°C 69% Calm Calm 6.7 mph10.8 kmh 32.01 in1084.0 mb 0.00 in0.0 mm 0.00 in/hr0.0 mm/hr 0.00 in0.0 mm
07:44 AM 41.9°F5.5°C 32.0°F0.0°C 67% 2.9 mph SW4.7 kmh SW 6.7 mph10.8 kmh 32.01 in1084.0 mb 0.00 in0.0 mm 0.00 in/hr0.0 mm/hr 0.00 in0.0 mm
07:39 AM 41.9°F5.5°C 31.9°F-0.1°C 67% Calm Calm 4.9 mph7.9 kmh 32.01 in1084.0 mb 0.00 in0.0 mm 0.00 in/hr0.0 mm/hr 0.00 in0.0 mm
07:33 AM 42.1°F5.6°C 32.1°F0.1°C 67% 2.8 mph SW4.5 kmh SW 4.9 mph7.9 kmh 32.01 in1084.0 mb 0.00 in0.0 mm 0.00 in/hr0.0 mm/hr 0.00 in0.0 mm
07:28 AM 42.1°F5.6°C 32.1°F0.1°C 67% 2.8 mph SW4.5 kmh SW 4.9 mph7.9 kmh 32.01 in1084.0 mb 0.00 in0.0 mm 0.00 in/hr0.0 mm/hr 0.00 in0.0 mm
07:23 AM 42.1°F5.6°C 32.1°F0.1°C 67% 2.8 mph SW4.5 kmh SW 4.9 mph7.9 kmh 32.01 in1084.0 mb 0.00 in0.0 mm 0.00 in/hr0.0 mm/hr 0.00 in0.0 mm
07:18 AM 42.1°F5.6°C 32.1°F0.1°C 67% 3.9 mph SW6.3 kmh SW 5.5 mph8.9 kmh 32.01 in1084.0 mb 0.00 in0.0 mm 0.00 in/hr0.0 mm/hr 0.00 in0.0 mm
07:13 AM 42.3°F5.7°C 32.3°F0.2°C 67% 3.0 mph SSW4.8 kmh SSW 6.7 mph10.8 kmh 32.01 in1084.0 mb 0.00 in0.0 mm 0.00 in/hr0.0 mm/hr 0.00 in0.0 mm
07:08 AM 42.3°F5.7°C 32.3°F0.2°C 67% 3.3 mph SW5.3 kmh SW 8.0 mph12.9 kmh 32.01 in1084.0 mb 0.00 in0.0 mm 0.00 in/hr0.0 mm/hr 0.00 in0.0 mm
07:03 AM 42.3°F5.7°C 32.3°F0.2°C 67% 5.0 mph SW8.0 kmh SW 8.0 mph12.9 kmh 32.01 in1084.0 mb 0.00 in0.0 mm 0.00 in/hr0.0 mm/hr 0.00 in0.0 mm
06:58 AM 42.4°F5.8°C 32.3°F0.2°C 67% 4.0 mph SW6.4 kmh SW 8.0 mph12.9 kmh 32.01 in1084.0 mb 0.00 in0.0 mm 0.00 in/hr0.0 mm/hr 0.00 in0.0 mm
06:53 AM 42.4°F5.8°C 31.9°F-0.1°C 66% 3.3 mph SW5.3 kmh SW 8.7 mph14.0 kmh 32.01 in1084.0 mb 0.00 in0.0 mm 0.00 in/hr0.0 mm/hr 0.00 in0.0 mm
06:48 AM 42.6°F5.9°C 32.1°F0.1°C 66% 3.7 mph SW6.0 kmh SW 8.7 mph14.0 kmh 32.01 in1084.0 mb 0.00 in0.0 mm 0.00 in/hr0.0 mm/hr 0.00 in0.0 mm
06:43 AM 42.6°F5.9°C 32.1°F0.1°C 66% 3.6 mph SW5.8 kmh SW 8.0 mph12.9 kmh 32.01 in1084.0 mb 0.00 in0.0 mm 0.00 in/hr0.0 mm/hr 0.00 in0.0 mm
06:38 AM 42.6°F5.9°C 32.1°F0.1°C 66% 3.6 mph SW5.8 kmh SW 8.0 mph12.9 kmh 32.01 in1084.0 mb 0.00 in0.0 mm 0.00 in/hr0.0 mm/hr 0.00 in0.0 mm
06:33 AM 42.8°F6.0°C 32.2°F0.1°C 66% Calm Calm 8.7 mph14.0 kmh 32.01 in1084.0 mb 0.00 in0.0 mm 0.00 in/hr0.0 mm/hr 0.00 in0.0 mm
06:28 AM 42.8°F6.0°C 31.8°F-0.1°C 65% 3.5 mph SW5.6 kmh SW 8.7 mph14.0 kmh 32.01 in1084.0 mb 0.00 in0.0 mm 0.00 in/hr0.0 mm/hr 0.00 in0.0 mm
06:22 AM 42.6°F5.9°C 32.1°F0.1°C 66% 4.8 mph SW7.7 kmh SW 8.7 mph14.0 kmh 32.01 in1084.0 mb 0.00 in0.0 mm 0.00 in/hr0.0 mm/hr 0.00 in0.0 mm
06:17 AM 42.6°F5.9°C 31.6°F-0.2°C 65% 4.2 mph SW6.8 kmh SW 8.7 mph14.0 kmh 32.01 in1084.0 mb 0.00 in0.0 mm 0.00 in/hr0.0 mm/hr 0.00 in0.0 mm
06:12 AM 42.4°F5.8°C 31.4°F-0.3°C 65% 4.6 mph SW7.4 kmh SW 8.7 mph14.0 kmh 32.01 in1084.0 mb 0.00 in0.0 mm 0.00 in/hr0.0 mm/hr 0.00 in0.0 mm
06:07 AM 42.4°F5.8°C 31.5°F-0.3°C 65% 4.2 mph SW6.8 kmh SW 8.7 mph14.0 kmh 32.01 in1084.0 mb 0.00 in0.0 mm 0.00 in/hr0.0 mm/hr 0.00 in0.0 mm
06:01 AM 42.4°F5.8°C 31.5°F-0.3°C 65% 4.7 mph SW7.6 kmh SW 8.7 mph14.0 kmh 32.01 in1084.0 mb 0.00 in0.0 mm 0.00 in/hr0.0 mm/hr 0.00 in0.0 mm
05:56 AM 42.4°F5.8°C 31.5°F-0.3°C 65% 3.8 mph SW6.1 kmh SW 6.7 mph10.8 kmh 32.01 in1084.0 mb 0.00 in0.0 mm 0.00 in/hr0.0 mm/hr 0.00 in0.0 mm
05:51 AM 42.4°F5.8°C 31.0°F-0.6°C 64% 3.9 mph SSW6.3 kmh SSW 7.4 mph11.9 kmh 32.01 in1084.0 mb 0.00 in0.0 mm 0.00 in/hr0.0 mm/hr 0.00 in0.0 mm
05:46 AM 42.4°F5.8°C 31.0°F-0.6°C 64% 4.0 mph SSW6.4 kmh SSW 7.4 mph11.9 kmh 32.01 in1084.0 mb 0.00 in0.0 mm 0.00 in/hr0.0 mm/hr 0.00 in0.0 mm
05:40 AM 42.4°F5.8°C 31.1°F-0.5°C 64% 3.7 mph SSW6.0 kmh SSW 8.7 mph14.0 kmh 32.01 in1084.0 mb 0.00 in0.0 mm 0.00 in/hr0.0 mm/hr 0.00 in0.0 mm
05:35 AM 42.6°F5.9°C 31.3°F-0.4°C 64% 4.6 mph SSW7.4 kmh SSW 8.7 mph14.0 kmh 32.01 in1084.0 mb 0.00 in0.0 mm 0.00 in/hr0.0 mm/hr 0.00 in0.0 mm
05:30 AM 42.6°F5.9°C 31.3°F-0.4°C 64% 3.9 mph SW6.3 kmh SW 8.7 mph14.0 kmh 32.01 in1084.0 mb 0.00 in0.0 mm 0.00 in/hr0.0 mm/hr 0.00 in0.0 mm
05:25 AM 42.6°F5.9°C 31.3°F-0.4°C 64% 4.0 mph SW6.4 kmh SW 8.7 mph14.0 kmh 32.01 in1084.0 mb 0.00 in0.0 mm 0.00 in/hr0.0 mm/hr 0.00 in0.0 mm
05:20 AM 42.6°F5.9°C 31.3°F-0.4°C 64% 3.9 mph SSW6.3 kmh SSW 8.7 mph14.0 kmh 32.01 in1084.0 mb 0.00 in0.0 mm 0.00 in/hr0.0 mm/hr 0.00 in0.0 mm
05:15 AM 42.6°F5.9°C 31.3°F-0.4°C 64% 4.7 mph SW7.6 kmh SW 8.7 mph14.0 kmh 32.01 in1084.0 mb 0.00 in0.0 mm 0.00 in/hr0.0 mm/hr 0.00 in0.0 mm
05:10 AM 42.6°F5.9°C 31.3°F-0.4°C 64% 3.6 mph SSW5.8 kmh SSW 8.7 mph14.0 kmh 32.01 in1084.0 mb 0.00 in0.0 mm 0.00 in/hr0.0 mm/hr 0.00 in0.0 mm
05:05 AM 42.6°F5.9°C 31.3°F-0.4°C 64% 4.8 mph SW7.7 kmh SW 8.7 mph14.0 kmh 32.01 in1084.0 mb 0.00 in0.0 mm 0.00 in/hr0.0 mm/hr 0.00 in0.0 mm
05:00 AM 42.6°F5.9°C 31.3°F-0.4°C 64% 5.1 mph SSW8.2 kmh SSW 10.4 mph16.7 kmh 32.01 in1084.0 mb 0.00 in0.0 mm 0.00 in/hr0.0 mm/hr 0.00 in0.0 mm
04:55 AM 42.6°F5.9°C 31.3°F-0.4°C 64% 4.3 mph SSW6.9 kmh SSW 10.4 mph16.7 kmh 32.01 in1084.0 mb 0.00 in0.0 mm 0.00 in/hr0.0 mm/hr 0.00 in0.0 mm
04:50 AM 42.4°F5.8°C 31.2°F-0.4°C 64% 4.0 mph SSW6.4 kmh SSW 8.0 mph12.9 kmh 32.01 in1084.0 mb 0.00 in0.0 mm 0.00 in/hr0.0 mm/hr 0.00 in0.0 mm
04:44 AM 42.4°F5.8°C 31.2°F-0.4°C 64% 3.7 mph SW6.0 kmh SW 7.4 mph11.9 kmh 32.01 in1084.0 mb 0.00 in0.0 mm 0.00 in/hr0.0 mm/hr 0.00 in0.0 mm
04:38 AM 42.3°F5.7°C 30.6°F-0.8°C 63% 3.8 mph SW6.1 kmh SW 8.7 mph14.0 kmh 32.01 in1084.0 mb 0.00 in0.0 mm 0.00 in/hr0.0 mm/hr 0.00 in0.0 mm
04:33 AM 42.1°F5.6°C 30.4°F-0.9°C 63% 4.3 mph SSW6.9 kmh SSW 8.7 mph14.0 kmh 32.01 in1084.0 mb 0.00 in0.0 mm 0.00 in/hr0.0 mm/hr 0.00 in0.0 mm
04:28 AM 42.1°F5.6°C 30.5°F-0.8°C 63% 4.0 mph SSW6.4 kmh SSW 8.0 mph12.9 kmh 32.01 in1084.0 mb 0.00 in0.0 mm 0.00 in/hr0.0 mm/hr 0.00 in0.0 mm
04:23 AM 42.1°F5.6°C 30.5°F-0.8°C 63% 3.9 mph SW6.3 kmh SW 7.4 mph11.9 kmh 32.01 in1084.0 mb 0.00 in0.0 mm 0.00 in/hr0.0 mm/hr 0.00 in0.0 mm
04:18 AM 41.9°F5.5°C 30.3°F-0.9°C 63% 3.0 mph SSW4.8 kmh SSW 8.0 mph12.9 kmh 32.01 in1084.0 mb 0.00 in0.0 mm 0.00 in/hr0.0 mm/hr 0.00 in0.0 mm
04:13 AM 41.9°F5.5°C 30.3°F-0.9°C 63% 3.9 mph SSW6.3 kmh SSW 8.0 mph12.9 kmh 32.01 in1084.0 mb 0.00 in0.0 mm 0.00 in/hr0.0 mm/hr 0.00 in0.0 mm
04:08 AM 42.1°F5.6°C 30.5°F-0.8°C 63% 2.8 mph SSW4.5 kmh SSW 7.4 mph11.9 kmh 32.01 in1084.0 mb 0.00 in0.0 mm 0.00 in/hr0.0 mm/hr 0.00 in0.0 mm
04:02 AM 42.1°F5.6°C 30.5°F-0.8°C 63% 3.6 mph SSW5.8 kmh SSW 7.4 mph11.9 kmh 32.01 in1084.0 mb 0.00 in0.0 mm 0.00 in/hr0.0 mm/hr 0.00 in0.0 mm
03:57 AM 42.1°F5.6°C 30.5°F-0.8°C 63% 3.4 mph SSW5.5 kmh SSW 8.0 mph12.9 kmh 32.01 in1084.0 mb 0.00 in0.0 mm 0.00 in/hr0.0 mm/hr 0.00 in0.0 mm
03:52 AM 42.1°F5.6°C 30.5°F-0.8°C 63% 3.8 mph SSW6.1 kmh SSW 8.0 mph12.9 kmh 32.01 in1084.0 mb 0.00 in0.0 mm 0.00 in/hr0.0 mm/hr 0.00 in0.0 mm
03:46 AM 42.3°F5.7°C 30.7°F-0.7°C 63% 3.9 mph SSW6.3 kmh SSW 8.0 mph12.9 kmh 32.01 in1084.0 mb 0.00 in0.0 mm 0.00 in/hr0.0 mm/hr 0.00 in0.0 mm
03:41 AM 42.3°F5.7°C 30.7°F-0.7°C 63% 3.7 mph SW6.0 kmh SW 6.7 mph10.8 kmh 32.01 in1084.0 mb 0.00 in0.0 mm 0.00 in/hr0.0 mm/hr 0.00 in0.0 mm
03:36 AM 42.3°F5.7°C 30.7°F-0.7°C 63% 3.4 mph SW5.5 kmh SW 5.5 mph8.9 kmh 32.01 in1084.0 mb 0.00 in0.0 mm 0.00 in/hr0.0 mm/hr 0.00 in0.0 mm
03:31 AM 42.3°F5.7°C 30.7°F-0.7°C 63% 3.2 mph SW5.1 kmh SW 5.5 mph8.9 kmh 32.01 in1084.0 mb 0.00 in0.0 mm 0.00 in/hr0.0 mm/hr 0.00 in0.0 mm
03:26 AM 42.4°F5.8°C 30.4°F-0.9°C 62% 3.6 mph SW5.8 kmh SW 5.5 mph8.9 kmh 32.01 in1084.0 mb 0.00 in0.0 mm 0.00 in/hr0.0 mm/hr 0.00 in0.0 mm
03:21 AM 42.4°F5.8°C 30.4°F-0.9°C 62% 3.3 mph SW5.3 kmh SW 6.7 mph10.8 kmh 32.01 in1084.0 mb 0.00 in0.0 mm 0.00 in/hr0.0 mm/hr 0.00 in0.0 mm
03:14 AM 42.6°F5.9°C 31.1°F-0.5°C 63% 3.9 mph SW6.3 kmh SW 6.7 mph10.8 kmh 32.01 in1084.0 mb 0.00 in0.0 mm 0.00 in/hr0.0 mm/hr 0.00 in0.0 mm
03:09 AM 42.8°F6.0°C 30.8°F-0.7°C 62% 3.5 mph SW5.6 kmh SW 6.7 mph10.8 kmh 32.01 in1084.0 mb 0.00 in0.0 mm 0.00 in/hr0.0 mm/hr 0.00 in0.0 mm
03:04 AM 43.0°F6.1°C 31.0°F-0.6°C 62% 2.8 mph SW4.5 kmh SW 5.5 mph8.9 kmh 32.01 in1084.0 mb 0.00 in0.0 mm 0.00 in/hr0.0 mm/hr 0.00 in0.0 mm
02:59 AM 43.0°F6.1°C 31.0°F-0.6°C 62% 3.6 mph SW5.8 kmh SW 5.5 mph8.9 kmh 32.01 in1084.0 mb 0.00 in0.0 mm 0.00 in/hr0.0 mm/hr 0.00 in0.0 mm
02:54 AM 43.2°F6.2°C 31.2°F-0.4°C 62% Calm Calm 4.9 mph7.9 kmh 32.01 in1084.0 mb 0.00 in0.0 mm 0.00 in/hr0.0 mm/hr 0.00 in0.0 mm
02:49 AM 43.2°F6.2°C 31.7°F-0.2°C 63% 3.0 mph SW4.8 kmh SW 5.5 mph8.9 kmh 32.01 in1084.0 mb 0.00 in0.0 mm 0.00 in/hr0.0 mm/hr 0.00 in0.0 mm
02:44 AM 43.3°F6.3°C 31.8°F-0.1°C 63% 2.8 mph SW4.5 kmh SW 5.5 mph8.9 kmh 32.01 in1084.0 mb 0.00 in0.0 mm 0.00 in/hr0.0 mm/hr 0.00 in0.0 mm
02:39 AM 43.3°F6.3°C 31.3°F-0.4°C 62% 2.9 mph SW4.7 kmh SW 6.7 mph10.8 kmh 32.01 in1084.0 mb 0.00 in0.0 mm 0.00 in/hr0.0 mm/hr 0.00 in0.0 mm
02:34 AM 43.3°F6.3°C 31.3°F-0.4°C 62% 3.6 mph SW5.8 kmh SW 6.7 mph10.8 kmh 32.01 in1084.0 mb 0.00 in0.0 mm 0.00 in/hr0.0 mm/hr 0.00 in0.0 mm
02:29 AM 43.5°F6.4°C 31.5°F-0.3°C 62% 2.8 mph SW4.5 kmh SW 6.7 mph10.8 kmh 32.01 in1084.0 mb 0.00 in0.0 mm 0.00 in/hr0.0 mm/hr 0.00 in0.0 mm
02:24 AM 43.5°F6.4°C 31.5°F-0.3°C 62% 2.8 mph SW4.5 kmh SW 6.7 mph10.8 kmh 32.01 in1084.0 mb 0.00 in0.0 mm 0.00 in/hr0.0 mm/hr 0.00 in0.0 mm
02:19 AM 43.7°F6.5°C 31.7°F-0.2°C 62% 3.9 mph SW6.3 kmh SW 6.7 mph10.8 kmh 32.01 in1084.0 mb 0.00 in0.0 mm 0.00 in/hr0.0 mm/hr 0.00 in0.0 mm
02:14 AM 43.7°F6.5°C 31.7°F-0.2°C 62% 4.2 mph SW6.8 kmh SW 6.7 mph10.8 kmh 32.01 in1084.0 mb 0.00 in0.0 mm 0.00 in/hr0.0 mm/hr 0.00 in0.0 mm
02:09 AM 43.9°F6.6°C 31.9°F-0.1°C 62% 3.4 mph SW5.5 kmh SW 6.7 mph10.8 kmh 32.01 in1084.0 mb 0.00 in0.0 mm 0.00 in/hr0.0 mm/hr 0.00 in0.0 mm
02:04 AM 43.9°F6.6°C 31.9°F-0.1°C 62% 3.9 mph SW6.3 kmh SW 8.7 mph14.0 kmh 32.01 in1084.0 mb 0.00 in0.0 mm 0.00 in/hr0.0 mm/hr 0.00 in0.0 mm
01:58 AM 44.1°F6.7°C 32.1°F0.1°C 62% 3.2 mph SW5.1 kmh SW 7.4 mph11.9 kmh 32.01 in1084.0 mb 0.00 in0.0 mm 0.00 in/hr0.0 mm/hr 0.00 in0.0 mm
01:52 AM 44.1°F6.7°C 32.1°F0.1°C 62% 3.7 mph SW6.0 kmh SW 7.4 mph11.9 kmh 32.01 in1084.0 mb 0.00 in0.0 mm 0.00 in/hr0.0 mm/hr 0.00 in0.0 mm
01:48 AM 44.1°F6.7°C 32.1°F0.1°C 62% 3.6 mph SW5.8 kmh SW 7.4 mph11.9 kmh 32.01 in1084.0 mb 0.00 in0.0 mm 0.00 in/hr0.0 mm/hr 0.00 in0.0 mm
01:42 AM 44.1°F6.7°C 32.1°F0.1°C 62% 4.5 mph SW7.2 kmh SW 7.4 mph11.9 kmh 32.01 in1084.0 mb 0.00 in0.0 mm 0.00 in/hr0.0 mm/hr 0.00 in0.0 mm
01:38 AM 44.2°F6.8°C 32.2°F0.1°C 62% 3.4 mph SW5.5 kmh SW 8.0 mph12.9 kmh 32.01 in1084.0 mb 0.00 in0.0 mm 0.00 in/hr0.0 mm/hr 0.00 in0.0 mm
01:32 AM 44.1°F6.7°C 32.1°F0.1°C 62% 5.0 mph SW8.0 kmh SW 8.0 mph12.9 kmh 32.01 in1084.0 mb 0.00 in0.0 mm 0.00 in/hr0.0 mm/hr 0.00 in0.0 mm
01:27 AM 44.1°F6.7°C 32.1°F0.1°C 62% 4.2 mph SW6.8 kmh SW 8.0 mph12.9 kmh 32.01 in1084.0 mb 0.00 in0.0 mm 0.00 in/hr0.0 mm/hr 0.00 in0.0 mm
01:22 AM 44.1°F6.7°C 32.1°F0.1°C 62% 4.0 mph SW6.4 kmh SW 8.0 mph12.9 kmh 32.01 in1084.0 mb 0.00 in0.0 mm 0.00 in/hr0.0 mm/hr 0.00 in0.0 mm
01:17 AM 44.1°F6.7°C 31.7°F-0.2°C 61% 4.8 mph SW7.7 kmh SW 8.0 mph12.9 kmh 32.01 in1084.0 mb 0.00 in0.0 mm 0.00 in/hr0.0 mm/hr 0.00 in0.0 mm
01:12 AM 43.9°F6.6°C 31.5°F-0.3°C 61% 4.7 mph SW7.6 kmh SW 8.7 mph14.0 kmh 32.01 in1084.0 mb 0.00 in0.0 mm 0.00 in/hr0.0 mm/hr 0.00 in0.0 mm
01:07 AM 43.9°F6.6°C 31.5°F-0.3°C 61% 4.0 mph SW6.4 kmh SW 8.7 mph14.0 kmh 32.01 in1084.0 mb 0.00 in0.0 mm 0.00 in/hr0.0 mm/hr 0.00 in0.0 mm
01:02 AM 43.9°F6.6°C 31.5°F-0.3°C 61% 4.0 mph SW6.4 kmh SW 8.0 mph12.9 kmh 32.01 in1084.0 mb 0.00 in0.0 mm 0.00 in/hr0.0 mm/hr 0.00 in0.0 mm
12:57 AM 43.9°F6.6°C 31.5°F-0.3°C 61% 4.5 mph SW7.2 kmh SW 8.0 mph12.9 kmh 32.01 in1084.0 mb 0.00 in0.0 mm 0.00 in/hr0.0 mm/hr 0.00 in0.0 mm
12:52 AM 44.1°F6.7°C 31.7°F-0.2°C 61% 3.4 mph SSW5.5 kmh SSW 7.4 mph11.9 kmh 32.01 in1084.0 mb 0.00 in0.0 mm 0.00 in/hr0.0 mm/hr 0.00 in0.0 mm
12:47 AM 44.1°F6.7°C 31.7°F-0.2°C 61% 2.9 mph SW4.7 kmh SW 5.5 mph8.9 kmh 32.01 in1084.0 mb 0.00 in0.0 mm 0.00 in/hr0.0 mm/hr 0.00 in0.0 mm
12:42 AM 44.1°F6.7°C 31.7°F-0.2°C 61% 3.9 mph SW6.3 kmh SW 5.5 mph8.9 kmh 32.01 in1084.0 mb 0.00 in0.0 mm 0.00 in/hr0.0 mm/hr 0.00 in0.0 mm
12:37 AM 44.1°F6.7°C 31.7°F-0.2°C 61% 3.9 mph SW6.3 kmh SW 6.7 mph10.8 kmh 32.01 in1084.0 mb 0.00 in0.0 mm 0.00 in/hr0.0 mm/hr 0.00 in0.0 mm
12:30 AM 44.2°F6.8°C 31.8°F-0.1°C 61% 3.5 mph SW5.6 kmh SW 6.7 mph10.8 kmh 32.01 in1084.0 mb 0.00 in0.0 mm 0.00 in/hr0.0 mm/hr 0.00 in0.0 mm
12:25 AM 44.2°F6.8°C 31.8°F-0.1°C 61% 3.2 mph SW5.1 kmh SW 8.7 mph14.0 kmh 32.01 in1084.0 mb 0.00 in0.0 mm 0.00 in/hr0.0 mm/hr 0.00 in0.0 mm
12:20 AM 44.2°F6.8°C 31.8°F-0.1°C 61% 3.5 mph SW5.6 kmh SW 8.7 mph14.0 kmh 32.01 in1084.0 mb 0.00 in0.0 mm 0.00 in/hr0.0 mm/hr 0.00 in0.0 mm
12:15 AM 44.2°F6.8°C 31.8°F-0.1°C 61% 3.8 mph SW6.1 kmh SW 8.0 mph12.9 kmh 32.01 in1084.0 mb 0.00 in0.0 mm 0.00 in/hr0.0 mm/hr 0.00 in0.0 mm
12:09 AM 44.2°F6.8°C 31.3°F-0.4°C 60% 4.2 mph SW6.8 kmh SW 8.0 mph12.9 kmh 32.01 in1084.0 mb 0.00 in0.0 mm 0.00 in/hr0.0 mm/hr 0.00 in0.0 mm
12:04 AM 44.2°F6.8°C 31.3°F-0.4°C 60% 4.2 mph SW6.8 kmh SW 8.0 mph12.9 kmh 32.01 in1084.0 mb 0.00 in0.0 mm 0.00 in/hr0.0 mm/hr 0.00 in0.0 mm